Time;durP1;ratioP1;P1;durP2;ratioP2;P2;SDS_P1;SDS_P2;PMS_P1;PMS_P2;Temp;Humidity;BMP_temperature;BMP_pressure;BME280_temperature;BME280_humidity;BME280_pressure;Samples;Min_cycle;Max_cycle;Signal;HPM_P1;HPM_P2
2024/01/23 05:46:12;;;;;;;21.85;4.80;;;;;;;6.47;100.00;101901.41;5844379;24;20975;31
2024/01/23 05:48:37;;;;;;;16.80;3.88;;;;;;;6.42;100.00;101891.25;4788359;29;20094;-74
2024/01/23 05:51:02;;;;;;;16.55;4.57;;;;;;;6.50;100.00;101912.72;4787359;29;20180;-75
2024/01/23 05:53:28;;;;;;;14.73;3.35;;;;;;;6.49;100.00;101899.13;4790796;29;20173;-75
2024/01/23 05:55:53;;;;;;;22.50;4.07;;;;;;;6.50;100.00;101900.78;4784569;29;20047;-75
2024/01/23 05:58:18;;;;;;;14.68;3.40;;;;;;;6.51;100.00;101902.41;4788601;29;20066;-75
2024/01/23 06:00:44;;;;;;;22.42;4.07;;;;;;;6.51;100.00;101914.38;4788465;29;20035;-75
2024/01/23 06:03:09;;;;;;;22.67;4.47;;;;;;;6.50;100.00;101923.84;4796491;29;20039;-75
2024/01/23 06:05:35;;;;;;;14.77;3.25;;;;;;;6.54;100.00;101924.00;4786842;29;20149;-75
2024/01/23 06:08:00;;;;;;;13.10;3.22;;;;;;;6.55;100.00;101924.81;4786951;29;20118;-75
2024/01/23 06:10:26;;;;;;;22.65;4.88;;;;;;;6.58;100.00;101919.44;4782609;29;20034;-76
2024/01/23 06:12:51;;;;;;;16.02;3.80;;;;;;;6.56;100.00;101927.28;4780847;29;20027;-75
2024/01/23 06:15:17;;;;;;;24.52;4.50;;;;;;;6.65;100.00;101936.47;4786919;29;20163;-75
2024/01/23 06:17:42;;;;;;;16.52;3.75;;;;;;;6.69;100.00;101926.31;4782415;29;20070;-75
2024/01/23 06:20:08;;;;;;;14.77;3.03;;;;;;;6.66;100.00;101937.28;4789514;29;20126;-75
2024/01/23 06:22:34;;;;;;;18.50;3.90;;;;;;;6.69;100.00;101948.56;4782455;29;20126;-75
2024/01/23 06:25:08;;;;;;;20.05;4.60;;;;;;;6.65;100.00;101963.47;4771151;29;20530;-75
2024/01/23 06:27:35;;;;;;;13.40;3.13;;;;;;;6.64;100.00;101951.53;4783959;29;20063;-75
2024/01/23 06:30:00;;;;;;;19.98;4.20;;;;;;;6.64;100.00;101957.09;4797709;29;20042;-75
2024/01/23 06:32:26;;;;;;;25.40;3.60;;;;;;;6.66;100.00;101965.94;4779919;29;22457;-75
2024/01/23 06:34:51;;;;;;;19.83;3.58;;;;;;;6.68;100.00;101969.22;4784753;29;20121;-76
2024/01/23 06:37:17;;;;;;;12.57;3.17;;;;;;;6.66;100.00;101977.06;4773309;29;20812;-75
2024/01/23 06:39:43;;;;;;;13.57;3.92;;;;;;;6.65;100.00;101978.19;4786547;29;20515;-75
2024/01/23 06:42:08;;;;;;;21.13;3.92;;;;;;;6.64;100.00;101984.91;4798856;29;20035;-75
2024/01/23 06:44:34;;;;;;;14.80;3.22;;;;;;;6.63;100.00;101994.38;4779895;29;20059;-75
2024/01/23 06:47:00;;;;;;;10.63;2.75;;;;;;;6.80;100.00;101998.34;4771818;29;20052;-75
2024/01/23 06:49:26;;;;;;;30.38;5.13;;;;;;;6.83;100.00;101997.69;4777428;29;20054;-75
2024/01/23 06:51:51;;;;;;;17.70;3.42;;;;;;;6.75;100.00;101993.78;4782550;29;20092;-76
2024/01/23 06:54:16;;;;;;;20.02;4.80;;;;;;;6.81;100.00;101999.97;4779628;29;20698;-75
2024/01/23 06:56:42;;;;;;;23.95;4.32;;;;;;;6.68;100.00;102005.38;4765159;29;20445;-76
2024/01/23 06:59:07;;;;;;;20.42;4.55;;;;;;;6.76;100.00;102006.53;4785927;29;20548;-75
2024/01/23 07:01:32;;;;;;;15.55;3.45;;;;;;;6.77;100.00;102001.78;4791708;29;20511;-76
2024/01/23 07:03:58;;;;;;;14.48;3.92;;;;;;;6.70;100.00;102003.09;4794070;29;20450;-74
2024/01/23 07:06:23;;;;;;;20.92;4.93;;;;;;;6.90;100.00;102015.56;4776682;29;20152;-75
2024/01/23 07:08:48;;;;;;;25.80;4.45;;;;;;;6.76;100.00;102014.06;4775751;29;20116;-75
2024/01/23 07:11:14;;;;;;;14.73;3.97;;;;;;;6.73;100.00;102004.41;4792336;29;20104;-75
2024/01/23 07:13:39;;;;;;;15.68;2.92;;;;;;;6.67;100.00;102017.63;4777814;29;20066;-75
2024/01/23 07:16:06;;;;;;;11.60;3.03;;;;;;;6.64;100.00;102025.81;4773985;29;20519;-75
2024/01/23 07:18:31;;;;;;;16.73;4.72;;;;;;;6.43;100.00;102025.56;4777144;30;20073;-75
2024/01/23 07:20:56;;;;;;;15.27;4.15;;;;;;;6.45;100.00;102037.19;4783913;29;20035;-75
2024/01/23 07:23:22;;;;;;;10.05;3.58;;;;;;;6.33;100.00;102045.34;4776318;29;20047;-74
2024/01/23 07:25:50;;;;;;;22.35;3.78;;;;;;;6.53;100.00;102044.75;4777082;29;20404;-73
2024/01/23 07:28:15;;;;;;;17.77;4.20;;;;;;;6.26;100.00;102060.53;4783194;29;20031;-72
2024/01/23 07:30:40;;;;;;;14.75;3.53;;;;;;;6.18;100.00;102054.94;4781145;29;20049;-75
2024/01/23 07:33:06;;;;;;;29.88;3.80;;;;;;;6.12;100.00;102065.34;4771996;29;20063;-72
2024/01/23 07:35:31;;;;;;;31.83;3.85;;;;;;;6.10;100.00;102076.78;4777288;29;20094;-73
2024/01/23 07:37:57;;;;;;;22.40;4.30;;;;;;;6.09;100.00;102075.16;4772807;29;20146;-74
2024/01/23 07:40:23;;;;;;;32.33;4.30;;;;;;;6.06;100.00;102069.41;4791647;29;20046;-73
2024/01/23 07:42:48;;;;;;;17.58;4.50;;;;;;;5.98;100.00;102079.31;4775975;29;20036;-73
2024/01/23 07:45:13;;;;;;;22.42;4.68;;;;;;;5.96;100.00;102086.34;4779401;29;20031;-73
2024/01/23 07:47:40;;;;;;;18.17;3.20;;;;;;;5.95;100.00;102091.09;4769624;29;20071;-72
2024/01/23 07:50:07;;;;;;;21.50;4.43;;;;;;;5.95;100.00;102091.09;4777802;30;20118;-74
2024/01/23 07:52:33;;;;;;;17.80;3.50;;;;;;;5.91;100.00;102104.75;4778567;29;20876;-72
2024/01/23 07:54:59;;;;;;;19.15;2.95;;;;;;;5.98;100.00;102100.75;4780039;29;20031;-74
2024/01/23 07:57:24;;;;;;;14.55;3.20;;;;;;;5.90;100.00;102094.78;4788155;29;20393;-73
2024/01/23 07:59:49;;;;;;;11.80;2.88;;;;;;;5.89;100.00;102109.00;4784473;29;20497;-75
2024/01/23 08:02:14;;;;;;;26.83;5.88;;;;;;;5.85;100.00;102119.91;4774395;29;20820;-74
2024/01/23 08:04:40;;;;;;;24.27;4.95;;;;;;;5.86;100.00;102113.22;4779227;29;20116;-73
2024/01/23 08:07:05;;;;;;;24.67;3.95;;;;;;;5.88;100.00;102113.75;4792883;29;20043;-73
2024/01/23 08:09:31;;;;;;;13.68;3.70;;;;;;;5.85;100.00;102130.22;4783803;29;20122;-74
2024/01/23 08:11:56;;;;;;;24.42;4.07;;;;;;;5.85;100.00;102135.75;4779133;29;20073;-72
2024/01/23 08:14:22;;;;;;;16.42;4.57;;;;;;;5.87;100.00;102128.75;4779609;29;20073;-73
2024/01/23 08:16:47;;;;;;;25.77;4.22;;;;;;;5.85;100.00;102131.03;4788370;29;20035;-75
2024/01/23 08:19:13;;;;;;;14.98;4.38;;;;;;;5.85;100.00;102158.81;4773752;29;20075;-75
2024/01/23 08:21:38;;;;;;;22.65;4.00;;;;;;;5.87;100.00;102152.94;4772567;29;20050;-75
2024/01/23 08:24:04;;;;;;;25.65;4.78;;;;;;;5.89;100.00;102145.94;4783241;29;20078;-75
2024/01/23 08:26:29;;;;;;;13.82;3.25;;;;;;;5.93;100.00;102137.78;4779867;29;20042;-74
2024/01/23 08:28:56;;;;;;;23.10;3.95;;;;;;;5.87;100.00;102141.84;4776418;29;20083;-73
2024/01/23 08:31:22;;;;;;;17.73;3.58;;;;;;;5.82;100.00;102137.22;4774167;29;20036;-74
2024/01/23 08:33:47;;;;;;;29.05;4.32;;;;;;;5.85;100.00;102136.56;4783049;29;20054;-73
2024/01/23 08:36:12;;;;;;;23.83;4.38;;;;;;;5.93;100.00;102131.41;4779131;29;20424;-74
2024/01/23 08:38:38;;;;;;;19.10;3.67;;;;;;;5.85;100.00;102135.75;4781930;29;20069;-74
2024/01/23 08:41:03;;;;;;;21.73;3.55;;;;;;;5.85;100.00;102144.91;4771435;29;20047;-75
2024/01/23 08:43:29;;;;;;;27.17;5.20;;;;;;;5.85;100.00;102153.25;4777134;29;20508;-74
2024/01/23 08:45:54;;;;;;;25.40;4.50;;;;;;;5.86;100.00;102146.56;4772498;29;20123;-74
2024/01/23 08:48:22;;;;;;;19.92;3.17;;;;;;;5.88;100.00;102146.25;4776573;29;20063;-74
2024/01/23 08:50:50;;;;;;;23.75;3.63;;;;;;;5.89;100.00;102154.28;4777926;29;20051;-74
2024/01/23 08:53:17;;;;;;;17.92;3.80;;;;;;;5.91;100.00;102154.78;4772388;29;20583;-74
2024/01/23 08:55:42;;;;;;;22.17;5.88;;;;;;;5.87;100.00;102153.75;4777743;29;20066;-75
2024/01/23 08:58:08;;;;;;;25.35;4.70;;;;;;;5.92;100.00;102158.38;4781521;29;20031;-74
2024/01/23 09:00:34;;;;;;;16.27;3.63;;;;;;;6.07;100.00;102176.66;4774771;29;20496;-75
2024/01/23 09:02:59;;;;;;;21.48;4.38;;;;;;;6.11;100.00;102183.22;4774626;29;20067;-75
2024/01/23 09:05:24;;;;;;;15.57;4.57;;;;;;;6.01;100.00;102166.81;4772612;29;20039;-75
2024/01/23 09:07:50;;;;;;;27.25;4.10;;;;;;;6.03;100.00;102181.22;4773330;29;20045;-75
2024/01/23 09:10:15;;;;;;;17.63;3.65;;;;;;;6.00;100.00;102177.09;4778530;29;21743;-75
2024/01/23 09:12:41;;;;;;;20.42;4.75;;;;;;;6.03;100.00;102173.72;4771014;29;20031;-74
2024/01/23 09:15:09;;;;;;;24.15;4.55;;;;;;;6.08;100.00;102178.31;4776890;29;20447;-75
2024/01/23 09:17:34;;;;;;;23.58;5.38;;;;;;;6.10;100.00;102181.59;4776290;29;20067;-74
2024/01/23 09:20:00;;;;;;;22.55;4.05;;;;;;;6.14;100.00;102177.06;4777240;29;20165;-74
2024/01/23 09:22:25;;;;;;;21.33;4.22;;;;;;;6.14;100.00;102188.19;4774360;29;20047;-74
2024/01/23 09:24:50;;;;;;;30.35;5.82;;;;;;;6.14;100.00;102193.75;4776838;29;20047;-74
2024/01/23 09:27:16;;;;;;;16.33;4.22;;;;;;;6.24;100.00;102192.66;4773190;29;20386;-74
2024/01/23 09:29:42;;;;;;;22.65;4.45;;;;;;;6.23;100.00;102202.97;4782988;29;20035;-73
2024/01/23 09:32:07;;;;;;;24.65;4.18;;;;;;;6.28;100.00;102202.00;4784373;29;20062;-74
2024/01/23 09:34:32;;;;;;;27.13;4.47;;;;;;;6.29;100.00;102187.78;4782892;29;20035;-71
2024/01/23 09:36:58;;;;;;;20.52;4.07;;;;;;;6.31;100.00;102209.72;4776708;29;20420;-74
2024/01/23 09:39:23;;;;;;;20.35;4.95;;;;;;;6.35;100.00;102209.94;4784579;29;20488;-75
2024/01/23 09:41:54;;;;;;;18.60;3.78;;;;;;;6.38;100.00;102215.66;4792517;29;20041;-74
2024/01/23 09:44:20;;;;;;;21.85;4.28;;;;;;;6.42;100.00;102229.75;4784401;29;20054;-74
2024/01/23 09:46:50;;;;;;;15.07;4.43;;;;;;;6.36;100.00;102225.47;4777172;29;20058;-74
2024/01/23 09:49:16;;;;;;;30.30;4.78;;;;;;;6.37;100.00;102232.69;4776236;30;20039;-74
2024/01/23 09:51:42;;;;;;;23.67;4.07;;;;;;;6.37;100.00;102241.84;4782360;29;20084;-74
2024/01/23 09:54:10;;;;;;;28.20;5.00;;;;;;;6.43;100.00;102248.06;4785068;29;20115;-74
2024/01/23 09:56:36;;;;;;;23.38;4.78;;;;;;;6.47;100.00;102244.38;4780437;29;20038;-74
2024/01/23 09:59:03;;;;;;;18.67;4.57;;;;;;;6.45;100.00;102243.88;4782282;29;20039;-75
2024/01/23 10:01:29;;;;;;;22.63;4.38;;;;;;;6.44;100.00;102255.28;4781896;29;20491;-75
2024/01/23 10:03:57;;;;;;;20.27;4.70;;;;;;;6.41;100.00;102253.97;4783335;29;20117;-75
2024/01/23 10:06:23;;;;;;;22.80;5.53;;;;;;;6.40;100.00;102234.81;4780625;29;20032;-74
2024/01/23 10:08:48;;;;;;;18.42;4.50;;;;;;;6.41;100.00;102237.28;4782285;29;20114;-74
2024/01/23 10:11:14;;;;;;;23.02;5.20;;;;;;;6.48;100.00;102223.75;4779341;29;20050;-73
2024/01/23 10:13:42;;;;;;;12.35;3.55;;;;;;;6.44;100.00;102224.69;4784845;29;20031;-74
2024/01/23 10:16:07;;;;;;;20.08;4.88;;;;;;;6.48;100.00;102225.72;4783115;29;20031;-74
2024/01/23 10:18:33;;;;;;;17.70;4.20;;;;;;;6.50;100.00;102217.88;4777173;29;20035;-74
2024/01/23 10:20:58;;;;;;;18.63;4.00;;;;;;;6.47;100.00;102226.84;4780922;29;20035;-74
2024/01/23 10:23:23;;;;;;;18.75;4.35;;;;;;;6.47;100.00;102212.94;4781518;29;20063;-75
2024/01/23 10:25:49;;;;;;;8.95;4.60;;;;;;;6.59;100.00;102213.16;4776644;30;20066;-74
2024/01/23 10:28:15;;;;;;;21.23;4.20;;;;;;;6.62;100.00;102215.34;4782896;29;20039;-74
2024/01/23 10:30:43;;;;;;;19.08;3.78;;;;;;;6.66;100.00;102210.78;4786507;29;20042;-75
2024/01/23 10:33:10;;;;;;;20.23;4.90;;;;;;;6.64;100.00;102221.41;4784062;29;20107;-75
2024/01/23 10:35:35;;;;;;;25.48;5.70;;;;;;;6.63;100.00;102222.53;4784309;29;20114;-74
2024/01/23 10:38:05;;;;;;;20.17;3.90;;;;;;;6.62;100.00;102209.78;4776327;29;20126;-75
2024/01/23 10:40:31;;;;;;;19.00;5.13;;;;;;;6.60;100.00;102212.06;4782888;29;20031;-74
2024/01/23 10:42:57;;;;;;;12.32;3.85;;;;;;;6.67;100.00;102217.16;4777087;29;20493;-74
2024/01/23 10:45:23;;;;;;;17.75;3.92;;;;;;;6.65;100.00;102208.31;4780176;29;20066;-75
2024/01/23 10:47:49;;;;;;;21.65;5.85;;;;;;;6.77;100.00;102218.81;4774445;29;20130;-75
2024/01/23 10:50:15;;;;;;;17.65;3.25;;;;;;;6.71;100.00;102210.63;4780127;29;20090;-74
2024/01/23 10:52:45;;;;;;;13.75;3.55;;;;;;;6.72;100.00;102219.78;4784147;29;22892;-75
2024/01/23 10:55:12;;;;;;;20.55;3.97;;;;;;;6.77;100.00;102228.03;4781581;29;20536;-74
2024/01/23 10:57:39;;;;;;;18.75;4.43;;;;;;;6.80;100.00;102219.03;4776288;29;20043;-75
2024/01/23 11:00:10;;;;;;;24.50;4.53;;;;;;;6.98;100.00;102222.72;4784420;29;20193;-76
2024/01/23 11:02:43;;;;;;;24.63;5.60;;;;;;;6.95;100.00;102228.09;4778607;29;20027;-75
2024/01/23 11:05:09;;;;;;;20.65;4.10;;;;;;;6.90;100.00;102232.66;4779394;29;20035;-74
2024/01/23 11:08:01;;;;;;;17.45;4.45;;;;;;;6.96;100.00;102208.31;4775183;29;20050;-75
2024/01/23 11:10:34;;;;;;;16.00;5.77;;;;;;;6.93;100.00;102220.06;4773979;29;20362;-75
2024/01/23 11:13:10;;;;;;;25.95;4.80;;;;;;;6.98;100.00;102228.28;4777026;29;20102;-75
2024/01/23 11:15:36;;;;;;;17.55;4.50;;;;;;;7.02;100.00;102232.09;4775785;29;20031;-75
2024/01/23 11:18:21;;;;;;;14.25;4.65;;;;;;;7.09;100.00;102218.50;4772547;29;20047;-75
2024/01/23 11:21:08;;;;;;;23.40;5.57;;;;;;;7.08;100.00;102208.53;4776551;29;20063;-75
2024/01/23 11:23:54;;;;;;;26.63;4.25;;;;;;;7.21;100.00;102211.50;4771803;29;20035;-75
2024/01/23 11:26:20;;;;;;;19.95;5.30;;;;;;;7.27;100.00;102202.69;4775133;29;20053;-75
2024/01/23 11:29:01;;;;;;;20.08;4.80;;;;;;;7.27;100.00;102208.25;4778929;29;20408;-74
2024/01/23 11:31:28;;;;;;;26.42;6.05;;;;;;;7.27;100.00;102213.84;4777497;29;20023;-74
2024/01/23 11:34:13;;;;;;;21.63;4.32;;;;;;;7.22;100.00;102216.75;4772259;29;20036;-75
2024/01/23 11:36:39;;;;;;;22.50;4.68;;;;;;;7.18;100.00;102234.44;4777444;30;20042;-75
2024/01/23 11:39:04;;;;;;;14.95;3.75;;;;;;;7.16;100.00;102225.56;4779546;29;20043;-75
2024/01/23 11:41:30;;;;;;;20.48;4.97;;;;;;;7.31;100.00;102205.63;4782840;29;20051;-75
2024/01/23 11:44:01;;;;;;;22.42;4.68;;;;;;;7.37;100.00;102201.56;4780567;29;20050;-75
2024/01/23 11:46:27;;;;;;;18.10;4.47;;;;;;;7.31;100.00;102180.56;4776932;29;20035;-74
2024/01/23 11:48:53;;;;;;;17.23;3.38;;;;;;;7.37;100.00;102197.97;4777455;29;20116;-74
2024/01/23 11:51:20;;;;;;;26.67;4.70;;;;;;;7.30;100.00;102185.31;4777794;30;20035;-75
2024/01/23 11:53:46;;;;;;;16.75;5.10;;;;;;;7.31;100.00;102172.22;4793093;29;20035;-74
2024/01/23 11:56:12;;;;;;;14.32;3.58;;;;;;;7.41;100.00;102160.78;4781526;29;20492;-75
2024/01/23 11:58:38;;;;;;;25.67;4.40;;;;;;;7.43;100.00;102150.13;4781476;29;20112;-76
2024/01/23 12:01:04;;;;;;;20.80;4.70;;;;;;;7.46;100.00;102149.50;4779193;29;20044;-75
2024/01/23 12:03:30;;;;;;;14.50;4.90;;;;;;;7.32;100.00;102154.38;4777995;29;20111;-75
2024/01/23 12:05:56;;;;;;;16.73;4.32;;;;;;;7.34;100.00;102143.72;4779055;29;20077;-75
2024/01/23 12:08:25;;;;;;;20.13;4.07;;;;;;;7.37;100.00;102162.56;4792134;29;20049;-76
2024/01/23 12:10:51;;;;;;;23.98;4.30;;;;;;;7.47;100.00;102162.25;4776917;29;20105;-76
2024/01/23 12:13:16;;;;;;;21.90;4.30;;;;;;;7.38;100.00;102164.22;4776585;29;20080;-76
2024/01/23 12:15:41;;;;;;;13.82;3.85;;;;;;;7.34;100.00;102154.88;4787457;29;20496;-76
2024/01/23 12:18:13;;;;;;;10.88;2.75;;;;;;;7.39;100.00;102149.13;4777082;29;20035;-76
2024/01/23 12:20:41;;;;;;;28.33;3.88;;;;;;;7.42;100.00;102131.78;4777594;29;20043;-76
2024/01/23 12:23:06;;;;;;;14.65;2.85;;;;;;;7.43;100.00;102127.84;4778010;29;20092;-76
2024/01/23 12:25:32;;;;;;;16.90;4.57;;;;;;;7.44;100.00;102123.91;4777529;29;20043;-77
2024/01/23 12:27:57;;;;;;;18.40;5.30;;;;;;;7.51;100.00;102129.00;4777489;29;20035;-76
2024/01/23 12:30:23;;;;;;;16.50;4.38;;;;;;;7.52;100.00;102125.88;4779184;29;20043;-76
2024/01/23 12:32:50;;;;;;;17.98;3.83;;;;;;;7.61;100.00;102131.47;4777134;29;20059;-77
2024/01/23 12:35:15;;;;;;;19.50;3.53;;;;;;;7.59;100.00;102124.56;4776468;29;20039;-76
2024/01/23 12:37:41;;;;;;;19.75;3.58;;;;;;;7.49;100.00;102120.97;4779493;29;20080;-76
2024/01/23 12:40:13;;;;;;;20.25;5.13;;;;;;;7.53;100.00;102119.16;4776406;29;20047;-76
2024/01/23 12:42:40;;;;;;;16.05;3.78;;;;;;;7.61;100.00;102114.75;4777448;29;20142;-76
2024/01/23 12:45:10;;;;;;;18.23;3.78;;;;;;;7.61;100.00;102123.09;4777167;29;20132;-76
2024/01/23 12:47:36;;;;;;;25.00;4.72;;;;;;;7.65;100.00;102112.09;4787691;29;20552;-76
2024/01/23 12:50:03;;;;;;;21.55;3.88;;;;;;;7.72;100.00;102106.88;4781514;29;20123;-76
2024/01/23 12:52:29;;;;;;;19.60;3.88;;;;;;;7.82;100.00;102106.56;4774727;29;20039;-76
2024/01/23 12:54:54;;;;;;;24.52;4.32;;;;;;;7.73;100.00;102106.53;4781577;29;20092;-76
2024/01/23 12:57:20;;;;;;;17.35;2.90;;;;;;;7.77;100.00;102098.34;4781743;29;20039;-76
2024/01/23 12:59:45;;;;;;;13.52;4.35;;;;;;;7.79;100.00;102095.22;4775220;29;20031;-76
2024/01/23 13:02:11;;;;;;;15.77;4.50;;;;;;;7.82;100.00;102100.97;4779230;29;20039;-76
2024/01/23 13:04:36;;;;;;;14.93;3.80;;;;;;;7.83;100.00;102091.44;4775920;29;20049;-76
2024/01/23 13:07:02;;;;;;;22.42;4.13;;;;;;;7.85;100.00;102086.38;4780700;29;20046;-76
2024/01/23 13:09:28;;;;;;;13.57;3.45;;;;;;;7.83;100.00;102080.31;4778229;29;20089;-75
2024/01/23 13:11:54;;;;;;;11.05;3.00;;;;;;;7.84;100.00;102075.53;4775235;29;20038;-76
2024/01/23 13:14:21;;;;;;;18.30;3.25;;;;;;;7.89;100.00;102075.38;4777426;29;20704;-76
2024/01/23 13:16:47;;;;;;;14.15;4.05;;;;;;;7.86;100.00;102062.94;4777169;29;21802;-76
2024/01/23 13:19:15;;;;;;;11.35;2.75;;;;;;;8.24;100.00;102062.19;4778007;29;20035;-75
2024/01/23 13:21:40;;;;;;;14.88;3.63;;;;;;;7.99;100.00;102066.69;4780008;29;20048;-75
2024/01/23 13:24:05;;;;;;;22.60;4.10;;;;;;;7.81;100.00;102065.88;4776268;29;20118;-75
2024/01/23 13:26:31;;;;;;;17.00;3.45;;;;;;;7.86;100.00;102062.94;4781147;29;20063;-75
2024/01/23 13:28:57;;;;;;;21.50;3.78;;;;;;;7.81;100.00;102070.63;4781952;29;20089;-75
2024/01/23 13:31:24;;;;;;;20.65;3.92;;;;;;;7.80;100.00;102071.75;4780105;29;20528;-75
2024/01/23 13:33:50;;;;;;;20.05;3.78;;;;;;;7.70;100.00;102059.81;4782356;29;20088;-76
2024/01/23 13:36:15;;;;;;;15.48;3.40;;;;;;;7.81;100.00;102060.28;4780301;29;20031;-74
2024/01/23 13:38:40;;;;;;;19.08;3.90;;;;;;;7.77;100.00;102053.75;4774632;29;23249;-76
2024/01/23 13:41:06;;;;;;;19.95;2.40;;;;;;;7.79;100.00;102059.00;4782711;29;20143;-75
2024/01/23 13:43:31;;;;;;;12.05;3.35;;;;;;;7.83;100.00;102049.63;4789335;29;20040;-75
2024/01/23 13:45:57;;;;;;;10.40;2.58;;;;;;;7.83;100.00;102040.47;4779911;29;20082;-75
2024/01/23 13:48:23;;;;;;;16.77;4.65;;;;;;;7.83;100.00;102046.84;4778893;29;20182;-75
2024/01/23 13:50:48;;;;;;;15.77;3.25;;;;;;;7.78;100.00;102055.41;4775416;29;20035;-74
2024/01/23 13:53:13;;;;;;;16.38;2.42;;;;;;;7.78;100.00;102049.81;4777746;29;20035;-75
2024/01/23 13:55:39;;;;;;;11.48;3.05;;;;;;;7.82;100.00;102056.38;4778091;29;20066;-75
2024/01/23 13:58:05;;;;;;;15.73;3.17;;;;;;;7.76;100.00;102045.69;4781145;29;20134;-75
2024/01/23 14:00:30;;;;;;;11.27;3.28;;;;;;;7.77;100.00;102048.16;4781063;29;20031;-75
2024/01/23 14:02:56;;;;;;;12.88;3.58;;;;;;;7.74;100.00;102037.69;4781964;29;20062;-75
2024/01/23 14:05:22;;;;;;;12.63;2.97;;;;;;;7.72;100.00;102028.84;4771939;30;20035;-74
2024/01/23 14:07:48;;;;;;;25.15;3.03;;;;;;;8.21;100.00;102032.16;4784254;29;20050;-74
2024/01/23 14:10:16;;;;;;;20.15;4.28;;;;;;;8.09;100.00;102026.44;4777218;29;20031;-74
2024/01/23 14:12:47;;;;;;;27.77;3.35;;;;;;;7.91;100.00;102014.53;4773258;29;20493;-75
2024/01/23 14:15:14;;;;;;;17.38;4.18;;;;;;;7.83;100.00;102013.41;4782391;29;20871;-75
2024/01/23 14:17:41;;;;;;;9.70;3.03;;;;;;;7.86;100.00;102007.19;4782460;29;20063;-75
2024/01/23 14:20:11;;;;;;;11.10;3.35;;;;;;;7.83;100.00;101996.69;4775788;29;20039;-75
2024/01/23 14:22:37;;;;;;;19.42;2.90;;;;;;;7.88;100.00;102009.63;4774535;29;20135;-75
2024/01/23 14:25:04;;;;;;;9.23;3.35;;;;;;;7.96;100.00;101994.03;4781384;29;20067;-75
2024/01/23 14:27:29;;;;;;;6.07;2.30;;;;;;;7.88;100.00;101993.69;4776719;29;20100;-75
2024/01/23 14:29:54;;;;;;;12.43;3.88;;;;;;;7.84;100.00;101977.97;4779953;29;20073;-75
2024/01/23 14:32:20;;;;;;;13.85;2.80;;;;;;;7.88;100.00;101963.03;4777593;29;20114;-75
2024/01/23 14:34:46;;;;;;;13.75;2.75;;;;;;;7.87;100.00;101972.56;4778642;29;20129;-75
2024/01/23 14:37:11;;;;;;;13.35;2.70;;;;;;;7.93;100.00;101954.50;4777804;29;20066;-75
2024/01/23 14:39:39;;;;;;;13.90;3.38;;;;;;;7.96;100.00;101960.56;4779458;29;20459;-74
2024/01/23 14:42:04;;;;;;;16.02;3.90;;;;;;;7.91;100.00;101947.63;4774616;29;20386;-75
2024/01/23 14:44:30;;;;;;;17.58;3.75;;;;;;;7.96;100.00;101953.00;4781731;29;20039;-74
2024/01/23 14:46:55;;;;;;;26.55;4.55;;;;;;;8.03;100.00;101938.53;4797990;29;20529;-75
2024/01/23 14:49:21;;;;;;;19.30;5.15;;;;;;;7.94;100.00;101942.19;4778488;29;20035;-74
2024/01/23 14:51:47;;;;;;;18.17;4.10;;;;;;;7.90;100.00;101930.06;4779696;29;20032;-74
2024/01/23 14:54:12;;;;;;;16.88;4.35;;;;;;;7.86;100.00;101922.72;4775566;29;20043;-74
2024/01/23 14:56:39;;;;;;;23.40;4.05;;;;;;;7.81;100.00;101932.06;4775519;29;20622;-74
2024/01/23 14:59:04;;;;;;;12.80;3.30;;;;;;;7.73;100.00;101936.50;4786265;29;20043;-74
2024/01/23 15:01:29;;;;;;;15.20;4.15;;;;;;;7.77;100.00;101942.25;4779510;29;20035;-74
2024/01/23 15:03:55;;;;;;;14.52;3.92;;;;;;;7.85;100.00;101919.09;4777083;29;20404;-75
2024/01/23 15:06:20;;;;;;;19.33;4.50;;;;;;;7.72;100.00;101918.19;4782992;29;20027;-74
2024/01/23 15:08:46;;;;;;;13.30;3.85;;;;;;;7.78;100.00;101916.03;4778651;29;20030;-74
2024/01/23 15:11:11;;;;;;;17.13;3.88;;;;;;;7.78;100.00;101901.25;4772517;29;20058;-74
2024/01/23 15:13:38;;;;;;;29.40;4.18;;;;;;;7.74;100.00;101881.63;4782066;29;20067;-74
2024/01/23 15:16:04;;;;;;;22.65;4.28;;;;;;;7.69;100.00;101885.38;4773395;29;20119;-74
2024/01/23 15:18:29;;;;;;;11.15;4.40;;;;;;;7.73;100.00;101871.59;4787959;29;20038;-74
2024/01/23 15:20:55;;;;;;;23.85;5.32;;;;;;;7.69;100.00;101873.44;4778629;29;20112;-75
2024/01/23 15:23:20;;;;;;;20.15;4.97;;;;;;;7.62;100.00;101862.81;4776199;29;20385;-75
2024/01/23 15:25:46;;;;;;;16.58;4.78;;;;;;;7.62;100.00;101853.63;4782100;29;20062;-75
2024/01/23 15:28:12;;;;;;;15.80;4.13;;;;;;;7.64;100.00;101845.75;4775263;29;20031;-75
2024/01/23 15:30:37;;;;;;;24.08;5.32;;;;;;;7.67;100.00;101847.84;4774468;29;20042;-75
2024/01/23 15:33:03;;;;;;;12.93;3.83;;;;;;;7.66;100.00;101840.66;4776622;29;20093;-75
2024/01/23 15:35:28;;;;;;;19.10;6.65;;;;;;;7.62;100.00;101823.78;4780736;29;20128;-75
2024/01/23 15:37:54;;;;;;;26.52;5.05;;;;;;;7.62;100.00;101818.22;4778674;29;20054;-74
2024/01/23 15:40:19;;;;;;;19.45;5.18;;;;;;;7.57;100.00;101806.44;4778172;29;20031;-75
2024/01/23 15:42:46;;;;;;;22.58;5.45;;;;;;;7.56;100.00;101802.03;4777886;29;20122;-75
2024/01/23 15:45:11;;;;;;;17.75;5.05;;;;;;;7.54;100.00;101783.66;4775464;29;20624;-74
2024/01/23 15:47:36;;;;;;;21.02;5.70;;;;;;;7.43;100.00;101787.97;4778895;29;20051;-75
2024/01/23 15:50:06;;;;;;;20.88;5.15;;;;;;;7.48;100.00;101770.25;4776464;29;20035;-75
2024/01/23 15:52:32;;;;;;;26.67;4.35;;;;;;;7.49;100.00;101753.22;4782903;29;20027;-75
2024/01/23 15:54:58;;;;;;;15.63;5.53;;;;;;;7.57;100.00;101753.50;4781164;29;20061;-75
2024/01/23 15:57:23;;;;;;;20.02;4.35;;;;;;;7.50;100.00;101743.69;4783628;29;20043;-75
2024/01/23 15:59:48;;;;;;;21.02;4.53;;;;;;;7.39;100.00;101748.03;4780204;29;20042;-74
2024/01/23 16:02:14;;;;;;;18.13;4.47;;;;;;;7.43;100.00;101754.56;4776768;29;20031;-75
2024/01/23 16:04:39;;;;;;;26.58;5.45;;;;;;;7.49;100.00;101741.28;4775741;29;20036;-76
2024/01/23 16:07:04;;;;;;;29.80;6.15;;;;;;;8.31;100.00;101750.03;4786707;29;20039;-75
2024/01/23 16:09:30;;;;;;;28.95;7.57;;;;;;;7.86;100.00;101738.72;4782807;29;20134;-76
2024/01/23 16:11:55;;;;;;;19.88;5.28;;;;;;;7.71;100.00;101726.22;4780806;29;20092;-74
2024/01/23 16:14:20;;;;;;;21.38;5.97;;;;;;;7.72;100.00;101723.09;4784348;29;20035;-73
2024/01/23 16:16:46;;;;;;;21.30;6.00;;;;;;;7.59;100.00;101701.88;4800500;29;20130;-73
2024/01/23 16:19:13;;;;;;;28.27;6.18;;;;;;;7.59;100.00;101701.88;4780590;29;20107;-74
2024/01/23 16:21:38;;;;;;;24.75;6.57;;;;;;;7.60;100.00;101692.34;4776529;29;20051;-75
2024/01/23 16:24:04;;;;;;;30.98;10.18;;;;;;;7.56;100.00;101679.44;4781854;29;20039;-76
2024/01/23 16:26:29;;;;;;;16.20;6.28;;;;;;;7.58;100.00;101668.78;4780711;29;20507;-73
2024/01/23 16:28:57;;;;;;;51.22;17.83;;;;;;;7.49;100.00;101657.69;4791411;29;20043;-75
2024/01/23 16:31:23;;;;;;;33.15;12.18;;;;;;;7.92;100.00;101653.75;4786779;29;20036;-75
2024/01/23 16:33:49;;;;;;;23.20;8.80;;;;;;;7.55;100.00;101645.19;4776323;29;20039;-76
2024/01/23 16:36:15;;;;;;;21.48;7.57;;;;;;;7.44;100.00;101638.38;4775454;29;20035;-76
2024/01/23 16:38:40;;;;;;;22.33;7.75;;;;;;;7.35;100.00;101651.56;4786402;29;20042;-76
2024/01/23 16:41:05;;;;;;;37.92;15.65;;;;;;;7.65;100.00;101649.53;4781295;29;20046;-78
2024/01/23 16:43:31;;;;;;;28.90;6.60;;;;;;;7.37;100.00;101650.06;4776350;29;20039;-78
2024/01/23 16:45:56;;;;;;;19.73;5.70;;;;;;;7.32;100.00;101642.72;4778873;29;20168;-77
2024/01/23 16:48:21;;;;;;;21.13;7.10;;;;;;;7.28;100.00;101646.53;4771535;29;20148;-78
2024/01/23 16:50:47;;;;;;;27.63;7.00;;;;;;;7.29;100.00;101628.66;4779264;29;20039;-78
2024/01/23 16:53:12;;;;;;;20.65;6.38;;;;;;;7.32;100.00;101625.19;4784908;29;20472;-78
2024/01/23 16:55:38;;;;;;;17.70;5.47;;;;;;;7.30;100.00;101610.78;4781365;29;20058;-78
2024/01/23 16:58:03;;;;;;;25.10;6.55;;;;;;;7.31;100.00;101615.19;4785059;29;20392;-78